Time;durP1;ratioP1;P1;durP2;ratioP2;P2;SDS_P1;SDS_P2;PMS_P1;PMS_P2;Temp;Humidity;BMP_temperature;BMP_pressure;BME280_temperature;BME280_humidity;BME280_pressure;Samples;Min_cycle;Max_cycle;Signal;HPM_P1;HPM_P2
2021/12/13 00:01:19;;;;;;;31.83;18.38;;;;;;;2.36;100.00;101894.09;5192458;24;20071;-84
2021/12/13 00:03:57;;;;;;;29.02;18.55;;;;;;;2.37;100.00;101889.63;4830846;29;20050;-85
2021/12/13 00:06:27;;;;;;;27.75;18.45;;;;;;;2.38;100.00;101886.00;4830642;29;20022;-84
2021/12/13 00:08:56;;;;;;;28.08;17.58;;;;;;;2.39;100.00;101890.38;4830008;29;20019;-84
2021/12/13 00:11:38;;;;;;;28.13;17.08;;;;;;;2.39;100.00;101879.75;4831242;29;20023;-85
2021/12/13 00:19:22;;;;;;;30.30;16.52;;;;;;;2.30;100.00;101871.50;5266797;24;20072;-84
2021/12/13 00:22:03;;;;;;;26.45;16.83;;;;;;;2.21;100.00;101856.28;4849442;29;20023;-83
2021/12/13 00:24:33;;;;;;;25.70;15.40;;;;;;;2.14;100.00;101859.53;4847082;29;20038;-84
2021/12/13 00:27:09;;;;;;;28.60;16.52;;;;;;;2.18;100.00;101869.78;4849652;29;20030;-86
2021/12/13 00:29:45;;;;;;;23.83;15.75;;;;;;;2.30;100.00;101870.66;4849760;29;20441;-83
2021/12/13 00:32:40;;;;;;;29.13;16.77;;;;;;;2.32;100.00;101877.56;4848496;29;20038;-82
2021/12/13 00:35:11;;;;;;;24.53;15.80;;;;;;;2.26;100.00;101864.75;4800468;29;20043;-83
2021/12/13 00:37:42;;;;;;;27.45;17.00;;;;;;;2.15;100.00;101878.00;4841917;29;20010;-84
2021/12/13 00:40:22;;;;;;;26.67;16.20;;;;;;;2.28;100.00;101899.97;4831569;29;20023;-85
2021/12/13 00:48:02;;;;;;;24.40;15.35;;;;;;;2.37;100.00;101900.25;4900202;24;20050;-84
2021/12/13 01:03:41;;;;;;;27.00;16.13;;;;;;;2.33;100.00;101903.16;5376580;24;20065;-85
2021/12/13 01:06:44;;;;;;;26.20;16.02;;;;;;;2.33;100.00;101908.47;4849753;29;20018;-85
2021/12/13 01:09:47;;;;;;;30.27;17.10;;;;;;;2.31;100.00;101913.03;4837885;29;20094;-85
2021/12/13 01:12:18;;;;;;;27.92;16.60;;;;;;;2.26;100.00;101896.63;4813142;29;20023;-85
2021/12/13 01:15:10;;;;;;;24.73;16.73;;;;;;;2.32;100.00;101919.22;4843584;29;20042;-85
2021/12/13 01:18:17;;;;;;;30.25;17.35;;;;;;;2.29;100.00;101909.66;4849269;29;20025;-85
2021/12/13 01:21:16;;;;;;;28.42;17.58;;;;;;;2.18;100.00;101887.53;4859855;24;20027;-85
2021/12/13 01:23:52;;;;;;;26.27;16.48;;;;;;;2.33;100.00;101923.56;4848497;29;20026;-84
2021/12/13 01:26:34;;;;;;;28.55;17.10;;;;;;;2.33;100.00;101927.03;4848819;29;20038;-85
2021/12/13 01:29:08;;;;;;;26.60;16.38;;;;;;;2.33;100.00;101932.34;4830824;29;20045;-85
2021/12/13 01:31:39;;;;;;;25.70;15.90;;;;;;;2.34;100.00;101935.84;4831542;29;20022;-84
2021/12/13 01:34:07;;;;;;;24.48;15.88;;;;;;;2.36;100.00;101933.94;4866213;29;20476;-85
2021/12/13 01:36:54;;;;;;;24.50;15.73;;;;;;;2.35;100.00;101926.91;4866829;29;20065;-85
2021/12/13 01:39:25;;;;;;;24.50;16.00;;;;;;;2.33;100.00;101926.22;4864246;29;20097;-85
2021/12/13 01:41:58;;;;;;;24.63;16.35;;;;;;;2.33;100.00;101927.03;4865838;29;20010;-84
2021/12/13 01:44:32;;;;;;;25.75;16.58;;;;;;;2.32;100.00;101917.41;4864130;29;20057;-84
2021/12/13 01:47:10;;;;;;;25.85;16.42;;;;;;;2.34;100.00;101915.44;4866108;29;20081;-85
2021/12/13 01:49:43;;;;;;;26.52;16.75;;;;;;;2.38;100.00;101925.84;4848379;29;20038;-85
2021/12/13 01:52:23;;;;;;;26.92;16.58;;;;;;;2.39;100.00;101928.41;4832086;29;20422;-84
2021/12/13 01:54:49;;;;;;;27.40;16.65;;;;;;;2.27;100.00;101929.31;4847769;29;20022;-84
2021/12/13 02:00:18;;;;;;;25.92;16.77;;;;;;;2.24;100.00;101937.53;4847631;29;20075;-84
2021/12/13 02:03:02;;;;;;;29.85;17.58;;;;;;;2.30;100.00;101937.91;4845652;29;20433;-85
2021/12/13 02:05:33;;;;;;;29.65;18.27;;;;;;;2.20;100.00;101918.34;4846260;29;20048;-85
2021/12/13 02:08:09;;;;;;;28.83;17.30;;;;;;;2.33;100.00;101940.31;4844671;29;20099;-85
2021/12/13 02:10:48;;;;;;;29.17;17.85;;;;;;;2.18;100.00;101908.78;4839447;29;20132;-85
2021/12/13 02:13:15;;;;;;;33.40;19.48;;;;;;;2.30;100.00;101937.06;4850826;29;20037;-85
2021/12/13 02:18:33;;;;;;;32.13;19.23;;;;;;;2.30;100.00;101935.25;5009846;24;20117;-86
2021/12/13 02:21:07;;;;;;;35.72;19.08;;;;;;;1.97;100.00;101866.16;4858743;29;20061;-86
2021/12/13 02:23:36;;;;;;;40.47;20.45;;;;;;;2.26;100.00;101917.88;4865572;29;20047;-86
2021/12/13 02:26:03;;;;;;;58.47;21.40;;;;;;;2.22;100.00;101924.38;4860439;29;20042;-86
2021/12/13 02:28:32;;;;;;;49.88;22.15;;;;;;;2.28;100.00;101928.34;4865433;29;20062;-85
2021/12/13 02:30:57;;;;;;;47.13;21.77;;;;;;;2.28;100.00;101931.00;4854825;29;20002;-86
2021/12/13 02:33:38;;;;;;;48.95;21.58;;;;;;;2.30;100.00;101929.94;4848685;29;20072;-86
2021/12/13 02:36:09;;;;;;;46.80;20.02;;;;;;;2.31;100.00;101931.63;4846660;29;20027;-85
2021/12/13 02:38:36;;;;;;;54.20;22.27;;;;;;;2.32;100.00;101928.03;4847609;29;20038;-86
2021/12/13 02:41:04;;;;;;;68.93;23.23;;;;;;;2.16;100.00;101906.25;4846243;29;20094;-85
2021/12/13 02:43:38;;;;;;;90.30;23.85;;;;;;;2.26;100.00;101925.00;4844297;29;20030;-86
2021/12/13 02:46:03;;;;;;;86.97;24.05;;;;;;;2.22;100.00;101913.75;4845376;29;20026;-86
2021/12/13 02:48:40;;;;;;;78.40;23.70;;;;;;;2.28;100.00;101918.56;4847223;29;20041;-86
2021/12/13 02:51:36;;;;;;;74.60;23.92;;;;;;;2.32;100.00;101925.38;4847756;29;20090;-85
2021/12/13 02:54:27;;;;;;;73.95;22.60;;;;;;;2.31;100.00;101928.13;4844149;29;20090;-85
2021/12/13 02:56:58;;;;;;;76.72;23.48;;;;;;;2.26;100.00;101912.56;4845819;29;20034;-85
2021/12/13 02:59:29;;;;;;;96.30;24.35;;;;;;;2.30;100.00;101921.13;4846504;29;20033;-86
2021/12/13 03:02:18;;;;;;;77.47;24.73;;;;;;;1.48;100.00;101795.56;4848632;29;20018;-85
2021/12/13 03:04:43;;;;;;;117.47;24.80;;;;;;;2.28;100.00;101931.84;4858881;29;20103;-83
2021/12/13 03:07:23;;;;;;;86.60;24.60;;;;;;;2.24;100.00;101930.41;4863771;29;20049;-85
2021/12/13 03:09:52;;;;;;;68.30;22.85;;;;;;;2.32;100.00;101937.81;4862293;29;20022;-85
2021/12/13 03:12:20;;;;;;;70.35;23.40;;;;;;;2.31;100.00;101928.97;4828581;29;20060;-85
2021/12/13 03:14:49;;;;;;;97.10;24.88;;;;;;;2.29;100.00;101924.75;4828537;29;20047;-85
2021/12/13 03:17:37;;;;;;;114.90;26.27;;;;;;;2.30;100.00;101923.78;4848684;29;20089;-85
2021/12/13 03:20:53;;;;;;;104.88;25.65;;;;;;;2.28;100.00;101925.69;4862477;29;20034;-86
2021/12/13 03:23:49;;;;;;;98.88;25.30;;;;;;;2.29;100.00;101919.44;4854406;29;20218;-86
2021/12/13 03:26:17;;;;;;;95.80;25.48;;;;;;;2.28;100.00;101920.38;4850788;29;20045;-86
2021/12/13 03:28:54;;;;;;;87.60;24.33;;;;;;;2.26;100.00;101912.56;4846659;29;20090;-86
2021/12/13 03:31:26;;;;;;;82.63;24.13;;;;;;;2.26;100.00;101904.59;4856117;29;20022;-86
2021/12/13 03:34:08;;;;;;;89.97;24.42;;;;;;;2.20;100.00;101899.75;4864395;29;20121;-86
2021/12/13 03:36:46;;;;;;;80.80;23.75;;;;;;;2.19;100.00;101906.03;4850832;29;20082;-85
2021/12/13 03:39:20;;;;;;;84.32;24.42;;;;;;;2.19;100.00;101908.69;4858050;29;20061;-85
2021/12/13 03:41:49;;;;;;;80.95;23.83;;;;;;;2.23;100.00;101906.63;4863041;29;20020;-85
2021/12/13 03:44:23;;;;;;;84.70;25.38;;;;;;;2.23;100.00;101896.00;4859021;29;20094;-85
2021/12/13 03:46:51;;;;;;;78.25;25.27;;;;;;;2.28;100.00;101902.63;4862373;29;20044;-85
2021/12/13 03:49:19;;;;;;;64.78;23.38;;;;;;;2.25;100.00;101892.28;4834806;29;20047;-85
2021/12/13 03:51:46;;;;;;;68.65;24.17;;;;;;;2.33;100.00;101907.63;4843214;29;20031;-85
2021/12/13 03:54:17;;;;;;;67.93;23.38;;;;;;;2.34;100.00;101902.16;4842589;29;20037;-85
2021/12/13 03:56:47;;;;;;;68.70;23.33;;;;;;;2.39;100.00;101911.63;4843694;29;20091;-85
2021/12/13 03:59:16;;;;;;;69.40;23.77;;;;;;;2.40;100.00;101907.97;4845933;29;20029;-85
2021/12/13 04:01:50;;;;;;;76.85;23.58;;;;;;;2.27;100.00;101903.63;4846295;29;20469;-84
2021/12/13 04:04:23;;;;;;;73.82;22.17;;;;;;;2.43;100.00;101929.84;4845605;29;20038;-85
2021/12/13 04:06:53;;;;;;;72.22;22.25;;;;;;;2.43;100.00;101926.34;4828281;29;20357;-84
2021/12/13 04:09:21;;;;;;;71.38;22.42;;;;;;;2.46;100.00;101926.13;4828213;29;20035;-85
2021/12/13 04:11:48;;;;;;;60.20;21.45;;;;;;;2.18;100.00;101879.56;4846655;29;20038;-85
2021/12/13 04:14:24;;;;;;;71.30;21.70;;;;;;;2.48;100.00;101924.16;4841174;29;20026;-84
2021/12/13 04:17:21;;;;;;;67.05;22.10;;;;;;;2.40;100.00;101900.00;4833909;29;20106;-85
2021/12/13 04:19:49;;;;;;;68.53;21.77;;;;;;;2.46;100.00;101904.84;4837676;29;20058;-85
2021/12/13 04:22:18;;;;;;;83.15;23.50;;;;;;;2.47;100.00;101898.56;4852032;29;20037;-84
2021/12/13 04:24:52;;;;;;;76.57;22.20;;;;;;;2.42;100.00;101887.44;4849991;29;20037;-85
2021/12/13 04:27:58;;;;;;;76.05;23.60;;;;;;;2.49;100.00;101899.31;4858996;29;20037;-84
2021/12/13 04:30:29;;;;;;;78.40;21.35;;;;;;;2.39;100.00;101885.06;4864726;29;20046;-82
2021/12/13 04:33:03;;;;;;;66.53;21.40;;;;;;;2.45;100.00;101900.50;4863722;29;20046;-85
2021/12/13 04:35:30;;;;;;;77.85;21.85;;;;;;;2.41;100.00;101894.56;4850507;29;20073;-84
2021/12/13 04:37:59;;;;;;;75.47;21.38;;;;;;;2.51;100.00;101905.31;4845988;29;20041;-85
2021/12/13 04:40:28;;;;;;;65.40;20.40;;;;;;;2.51;100.00;101905.31;4846505;29;20014;-85
2021/12/13 04:43:01;;;;;;;65.85;20.20;;;;;;;2.47;100.00;101899.41;4846110;29;20054;-85
2021/12/13 04:45:28;;;;;;;67.90;20.30;;;;;;;2.52;100.00;101907.03;4845877;29;20022;-84
2021/12/13 04:48:16;;;;;;;63.90;20.95;;;;;;;2.55;100.00;101909.44;4845892;29;20042;-84
2021/12/13 04:51:06;;;;;;;61.03;20.58;;;;;;;2.52;100.00;101902.56;4859004;29;20067;-84
2021/12/13 04:53:47;;;;;;;63.22;21.65;;;;;;;2.44;100.00;101889.03;4859703;29;20026;-85
2021/12/13 04:56:21;;;;;;;67.13;21.83;;;;;;;2.56;100.00;101927.94;4852450;29;20042;-85
2021/12/13 04:58:49;;;;;;;67.93;20.77;;;;;;;2.55;100.00;101925.38;4864451;29;20042;-85
2021/12/13 05:01:17;;;;;;;69.82;21.83;;;;;;;2.57;100.00;101934.09;4856935;29;20023;-85
2021/12/13 05:03:47;;;;;;;67.15;23.15;;;;;;;2.48;100.00;101911.72;4846018;29;20030;-85
2021/12/13 05:06:16;;;;;;;58.30;21.45;;;;;;;2.19;100.00;101868.00;4849981;29;20056;-86
2021/12/13 05:08:45;;;;;;;60.22;21.63;;;;;;;2.62;100.00;101939.06;5034960;24;20121;-86
2021/12/13 05:11:11;;;;;;;52.90;19.80;;;;;;;2.58;100.00;101939.28;4851915;29;20070;-86
2021/12/13 05:13:52;;;;;;;48.63;19.20;;;;;;;2.40;100.00;101916.78;4855154;29;20078;-86
2021/12/13 05:16:37;;;;;;;58.08;20.48;;;;;;;2.35;100.00;101917.16;4847121;29;20094;-85
2021/12/13 05:19:06;;;;;;;46.67;18.83;;;;;;;2.62;100.00;101962.97;4836999;29;20082;-85
2021/12/13 05:21:42;;;;;;;47.08;19.65;;;;;;;2.69;100.00;101975.66;4850486;29;20021;-84
2021/12/13 05:24:24;;;;;;;53.60;20.08;;;;;;;2.66;100.00;101967.06;4846804;29;20035;-85
2021/12/13 05:26:56;;;;;;;44.80;18.63;;;;;;;1.54;100.00;101792.47;5006279;24;20033;-85
2021/12/13 05:29:21;;;;;;;53.78;19.13;;;;;;;2.69;100.00;101962.38;4865586;29;20013;-86
2021/12/13 05:31:59;;;;;;;43.50;18.35;;;;;;;2.65;100.00;101970.69;4860815;29;20109;-86
2021/12/13 05:34:39;;;;;;;39.50;17.02;;;;;;;2.56;100.00;101959.81;4848164;29;20022;-85
2021/12/13 05:37:07;;;;;;;45.65;18.67;;;;;;;2.55;100.00;101958.13;4850954;29;20082;-85
2021/12/13 05:39:35;;;;;;;35.35;16.85;;;;;;;2.69;100.00;101977.47;4853642;29;20049;-85
2021/12/13 05:42:06;;;;;;;45.28;17.20;;;;;;;2.71;100.00;101976.38;4852758;29;20393;-85
2021/12/13 05:44:37;;;;;;;43.25;17.25;;;;;;;2.68;100.00;101962.47;4851597;29;20034;-83
2021/12/13 05:47:06;;;;;;;39.38;17.08;;;;;;;2.63;100.00;101954.88;4854202;29;20074;-83
2021/12/13 05:49:40;;;;;;;36.25;16.48;;;;;;;2.63;100.00;101962.00;4853002;29;20029;-83
2021/12/13 05:52:08;;;;;;;35.72;16.40;;;;;;;2.68;100.00;101968.66;4852262;29;20456;-84
2021/12/13 05:54:39;;;;;;;38.38;16.45;;;;;;;2.69;100.00;101957.06;4849879;29;20053;-84
2021/12/13 05:57:08;;;;;;;34.10;16.40;;;;;;;2.69;100.00;101961.53;4851479;29;20036;-84
2021/12/13 05:59:38;;;;;;;40.63;16.20;;;;;;;2.60;100.00;101949.78;4841706;29;20056;-83
2021/12/13 06:02:18;;;;;;;38.78;16.15;;;;;;;2.66;100.00;101954.63;4846190;29;20029;-84
2021/12/13 06:04:59;;;;;;;36.78;15.63;;;;;;;2.68;100.00;101966.00;4847955;29;20557;-84
2021/12/13 06:07:31;;;;;;;32.65;15.55;;;;;;;2.69;100.00;101966.84;4849962;29;20063;-84
2021/12/13 06:10:15;;;;;;;32.85;15.60;;;;;;;2.71;100.00;101975.53;4861295;29;20034;-85
2021/12/13 06:12:59;;;;;;;36.53;15.50;;;;;;;2.69;100.00;101967.69;4859068;29;20049;-84
2021/12/13 06:15:43;;;;;;;39.08;16.55;;;;;;;2.71;100.00;101970.22;4859461;29;20038;-84
2021/12/13 06:18:24;;;;;;;37.40;16.15;;;;;;;2.61;100.00;101951.47;4858014;29;20035;-83
2021/12/13 06:20:55;;;;;;;34.42;15.43;;;;;;;2.70;100.00;101966.72;4845301;29;20130;-83
2021/12/13 06:23:45;;;;;;;39.70;16.65;;;;;;;2.66;100.00;101967.91;4846941;29;20026;-83
2021/12/13 06:26:13;;;;;;;39.33;16.00;;;;;;;2.68;100.00;101970.44;4841872;29;20073;-83
2021/12/13 06:28:54;;;;;;;35.30;15.65;;;;;;;2.69;100.00;101966.84;4844345;29;20046;-84
2021/12/13 06:31:22;;;;;;;38.10;16.80;;;;;;;2.56;100.00;101957.16;4848549;29;20065;-83
2021/12/13 06:33:51;;;;;;;35.22;15.27;;;;;;;2.70;100.00;101974.69;4855039;29;20389;-84
2021/12/13 06:36:37;;;;;;;39.15;16.83;;;;;;;2.70;100.00;101973.84;4920924;24;20030;-82
2021/12/13 06:39:09;;;;;;;42.03;15.93;;;;;;;2.67;100.00;101964.28;4817077;29;20072;-83
2021/12/13 06:41:38;;;;;;;41.58;17.35;;;;;;;2.68;100.00;101968.66;4817311;29;20022;-83
2021/12/13 06:44:16;;;;;;;40.60;17.67;;;;;;;2.70;100.00;101957.91;4819043;29;20060;-82
2021/12/13 06:46:41;;;;;;;47.75;18.23;;;;;;;2.64;100.00;101937.09;4817635;29;20049;-83
2021/12/13 06:49:16;;;;;;;43.05;17.48;;;;;;;2.66;100.00;101946.66;4817316;29;20107;-83
2021/12/13 06:52:04;;;;;;;45.20;17.92;;;;;;;2.69;100.00;101940.25;4800524;29;20054;-82
2021/12/13 06:54:46;;;;;;;38.67;16.65;;;;;;;2.69;100.00;101935.78;4800280;30;20090;-84
2021/12/13 06:57:29;;;;;;;46.85;17.92;;;;;;;2.67;100.00;101929.75;4812468;29;20030;-84
2021/12/13 07:00:05;;;;;;;41.38;18.50;;;;;;;2.52;100.00;101902.56;4819479;29;20038;-84
2021/12/13 07:02:47;;;;;;;45.20;19.05;;;;;;;2.69;100.00;101922.50;4823427;29;20173;-82
2021/12/13 07:05:41;;;;;;;47.05;18.85;;;;;;;2.73;100.00;101941.72;4823288;29;20030;-84
2021/12/13 07:08:11;;;;;;;43.10;18.27;;;;;;;2.75;100.00;101940.63;4815964;29;20088;-84
2021/12/13 07:10:43;;;;;;;43.45;17.60;;;;;;;2.78;100.00;101929.75;4818697;29;20090;-83
2021/12/13 07:13:22;;;;;;;40.78;17.73;;;;;;;2.77;100.00;101928.03;4823315;29;20030;-83
2021/12/13 07:16:12;;;;;;;42.38;17.77;;;;;;;2.78;100.00;101924.44;4819563;29;20035;-82
2021/12/13 07:19:18;;;;;;;39.53;17.42;;;;;;;2.80;100.00;101926.97;4819953;29;20108;-84
2021/12/13 07:21:56;;;;;;;43.63;18.45;;;;;;;2.81;100.00;101933.97;4804047;29;20033;-84
2021/12/13 07:24:42;;;;;;;48.05;18.42;;;;;;;2.83;100.00;101934.69;4806853;29;20023;-83
2021/12/13 07:27:09;;;;;;;42.78;16.95;;;;;;;2.76;100.00;101928.19;4823748;29;20022;-84
2021/12/13 07:29:34;;;;;;;44.60;17.08;;;;;;;2.83;100.00;101932.88;4821078;29;20172;-83
2021/12/13 07:32:20;;;;;;;44.97;17.30;;;;;;;2.86;100.00;101938.94;4818797;29;20038;-84
2021/12/13 07:34:51;;;;;;;40.67;16.38;;;;;;;2.85;100.00;101943.41;4818807;29;20050;-83
2021/12/13 07:37:17;;;;;;;43.88;17.45;;;;;;;2.70;100.00;101924.19;4819033;29;20071;-84
2021/12/13 07:39:43;;;;;;;48.03;17.00;;;;;;;2.89;100.00;101941.34;4788608;29;20058;-83
2021/12/13 07:42:12;;;;;;;50.83;18.10;;;;;;;2.89;100.00;101930.72;4823349;29;20034;-84
2021/12/13 07:44:47;;;;;;;53.15;18.60;;;;;;;2.85;100.00;101921.28;4822724;29;20056;-84
2021/12/13 07:47:23;;;;;;;51.22;17.90;;;;;;;2.77;100.00;101898.81;4820346;29;20058;-84
2021/12/13 07:49:57;;;;;;;54.13;17.45;;;;;;;2.91;100.00;101915.47;4822656;29;20026;-83
2021/12/13 07:52:31;;;;;;;43.95;15.98;;;;;;;2.94;100.00;101923.22;4823653;29;20027;-83
2021/12/13 07:55:11;;;;;;;51.57;16.63;;;;;;;2.91;100.00;101918.13;4823989;29;20097;-84
2021/12/13 07:57:37;;;;;;;48.65;15.18;;;;;;;2.88;100.00;101903.31;4811367;29;20026;-84
2021/12/13 08:00:17;;;;;;;64.72;17.23;;;;;;;2.97;100.00;101918.50;4830286;29;20059;-84
2021/12/13 08:02:54;;;;;;;53.10;15.50;;;;;;;3.00;100.00;101920.06;4832306;29;20035;-84
2021/12/13 08:05:24;;;;;;;48.45;15.45;;;;;;;2.92;100.00;101903.91;4827335;29;20038;-83
2021/12/13 08:07:55;;;;;;;53.05;16.13;;;;;;;3.01;100.00;101919.09;4822077;29;20033;-84
2021/12/13 08:10:20;;;;;;;69.40;18.25;;;;;;;3.02;100.00;101929.63;4822197;29;20083;-83
2021/12/13 08:12:53;;;;;;;56.78;16.85;;;;;;;3.03;100.00;101936.63;4822038;29;20026;-83
2021/12/13 08:15:29;;;;;;;51.85;15.93;;;;;;;3.05;100.00;101931.19;4819781;29;20066;-83
2021/12/13 08:18:03;;;;;;;59.25;16.20;;;;;;;3.06;100.00;101931.06;4803631;29;20028;-82
2021/12/13 08:20:40;;;;;;;54.65;16.98;;;;;;;3.05;100.00;101924.06;4821274;29;20031;-84
2021/12/13 08:23:15;;;;;;;58.75;17.08;;;;;;;3.06;100.00;101944.34;4820115;29;20027;-84
2021/12/13 08:25:41;;;;;;;74.32;19.13;;;;;;;3.04;100.00;101930.31;4821189;29;20023;-84
2021/12/13 08:28:11;;;;;;;58.25;16.77;;;;;;;3.06;100.00;101928.41;4821111;29;20047;-84
2021/12/13 08:30:49;;;;;;;56.33;16.13;;;;;;;3.04;100.00;101927.66;4820655;29;20048;-84
2021/12/13 08:33:36;;;;;;;61.03;16.90;;;;;;;3.08;100.00;101930.09;4821004;29;20035;-82
2021/12/13 08:36:26;;;;;;;66.60;17.05;;;;;;;3.13;100.00;101920.78;4822076;29;20031;-83
2021/12/13 08:39:08;;;;;;;62.47;16.88;;;;;;;3.08;100.00;101901.69;4821685;29;20484;-83
2021/12/13 08:41:42;;;;;;;59.10;16.08;;;;;;;3.16;100.00;101907.22;4820294;29;20027;-83
2021/12/13 08:44:10;;;;;;;62.28;16.73;;;;;;;3.20;100.00;101913.16;4820544;29;20027;-84
2021/12/13 08:46:47;;;;;;;52.03;15.18;;;;;;;3.22;100.00;101914.72;4819360;29;20031;-83
2021/12/13 08:49:37;;;;;;;51.95;16.00;;;;;;;3.25;100.00;101906.50;4820043;29;20038;-84
2021/12/13 08:52:11;;;;;;;47.50;14.00;;;;;;;3.28;100.00;101905.41;4819554;29;20038;-84
2021/12/13 08:55:04;;;;;;;49.97;14.95;;;;;;;3.33;100.00;101907.69;4818447;29;20031;-83
2021/12/13 08:58:00;;;;;;;41.00;13.85;;;;;;;3.38;100.00;101909.00;4818458;29;20054;-83
2021/12/13 09:00:32;;;;;;;44.67;13.43;;;;;;;3.33;100.00;101897.03;4817099;29;20076;-83
2021/12/13 09:03:09;;;;;;;42.20;13.45;;;;;;;3.41;100.00;101903.44;4818077;29;20019;-83
2021/12/13 09:05:39;;;;;;;47.42;13.85;;;;;;;3.42;100.00;101899.81;4817746;29;20041;-83
2021/12/13 09:08:15;;;;;;;40.72;13.38;;;;;;;3.44;100.00;101895.19;4816515;29;20035;-83
2021/12/13 09:10:46;;;;;;;36.35;12.70;;;;;;;3.50;100.00;101913.31;4800666;29;20035;-81
2021/12/13 09:13:17;;;;;;;34.88;11.88;;;;;;;3.52;100.00;101910.53;4799845;29;20027;-84
2021/12/13 09:15:43;;;;;;;39.60;12.35;;;;;;;3.53;100.00;101898.91;4816009;29;20034;-83
2021/12/13 09:18:19;;;;;;;37.15;12.25;;;;;;;3.59;100.00;101908.22;4816126;29;20091;-83
2021/12/13 09:20:50;;;;;;;31.13;11.38;;;;;;;3.54;100.00;101887.28;4815370;29;20122;-83
2021/12/13 09:23:28;;;;;;;35.95;11.68;;;;;;;3.65;100.00;101903.22;4817094;29;20027;-83
2021/12/13 09:26:05;;;;;;;39.50;12.23;;;;;;;3.65;100.00;101903.22;4815591;29;20064;-83
2021/12/13 09:28:34;;;;;;;35.70;12.65;;;;;;;3.69;100.00;101907.31;4803772;29;20033;-84
2021/12/13 09:31:28;;;;;;;34.67;12.13;;;;;;;3.73;100.00;101906.09;4817958;29;20030;-82
2021/12/13 09:33:59;;;;;;;37.15;12.57;;;;;;;3.76;100.00;101905.00;4814903;29;20113;-83
2021/12/13 09:36:31;;;;;;;37.90;12.55;;;;;;;3.73;100.00;101903.44;4815281;29;20102;-82
2021/12/13 09:39:27;;;;;;;41.17;12.93;;;;;;;3.85;100.00;101914.03;4815952;29;20038;-83
2021/12/13 09:42:19;;;;;;;43.00;13.43;;;;;;;3.81;100.00;101912.59;4814883;29;20050;-82
2021/12/13 09:45:01;;;;;;;47.53;13.73;;;;;;;3.78;100.00;101899.56;4813121;29;20082;-83
2021/12/13 09:47:34;;;;;;;44.00;14.15;;;;;;;3.66;100.00;101877.47;4820290;29;20095;-83
2021/12/13 09:50:12;;;;;;;44.60;14.27;;;;;;;3.77;100.00;101896.03;4814599;29;20034;-83
2021/12/13 09:52:42;;;;;;;44.13;14.07;;;;;;;3.79;100.00;101904.75;4813725;29;20058;-82
2021/12/13 09:55:11;;;;;;;49.38;14.80;;;;;;;3.80;100.00;101897.59;4813220;29;20084;-83
2021/12/13 09:58:03;;;;;;;44.95;15.15;;;;;;;3.73;100.00;101890.13;4812984;29;20038;-83
2021/12/13 10:00:35;;;;;;;45.90;14.35;;;;;;;3.79;100.00;101894.09;4812807;29;20027;-83
2021/12/13 10:03:08;;;;;;;47.40;13.95;;;;;;;3.71;100.00;101872.59;4795256;29;20164;-83
2021/12/13 10:05:41;;;;;;;48.00;15.32;;;;;;;3.75;100.00;101879.34;4805381;29;20042;-83
2021/12/13 10:08:12;;;;;;;48.25;14.85;;;;;;;3.80;100.00;101895.78;4813308;29;20046;-83
2021/12/13 10:10:46;;;;;;;47.75;14.98;;;;;;;3.76;100.00;101884.53;4812535;29;20034;-82
2021/12/13 10:13:20;;;;;;;55.35;15.40;;;;;;;3.83;100.00;101890.19;4812976;29;20091;-82
2021/12/13 10:15:53;;;;;;;56.60;15.63;;;;;;;3.81;100.00;101877.97;4812497;29;20094;-83
2021/12/13 10:18:25;;;;;;;57.60;16.92;;;;;;;3.86;100.00;101892.59;4811986;29;20045;-82
2021/12/13 10:20:58;;;;;;;68.55;16.77;;;;;;;3.78;100.00;101870.28;4811495;29;20027;-82
2021/12/13 10:23:29;;;;;;;52.90;16.50;;;;;;;3.87;100.00;101890.78;4818264;29;20054;-84
2021/12/13 10:25:58;;;;;;;62.55;16.77;;;;;;;3.90;100.00;101893.19;4817509;29;20041;-83
2021/12/13 10:28:34;;;;;;;61.03;16.55;;;;;;;3.92;100.00;101884.09;4814012;29;20062;-81
2021/12/13 10:31:08;;;;;;;61.47;16.50;;;;;;;3.91;100.00;101879.75;4808310;29;20018;-81
2021/12/13 10:33:37;;;;;;;64.00;15.55;;;;;;;3.90;100.00;101875.38;4797845;29;20028;-82
2021/12/13 10:36:06;;;;;;;63.63;16.23;;;;;;;3.95;100.00;101875.03;4816151;29;20034;-83
2021/12/13 10:38:36;;;;;;;61.03;15.88;;;;;;;3.96;100.00;101871.38;4813288;29;20059;-84
2021/12/13 10:41:10;;;;;;;68.07;16.17;;;;;;;3.80;100.00;101852.34;4810830;29;20031;-83
2021/12/13 10:43:45;;;;;;;59.75;15.43;;;;;;;3.97;100.00;101865.94;4814270;29;20023;-82
2021/12/13 10:46:15;;;;;;;60.67;14.93;;;;;;;4.00;100.00;101870.13;4819068;29;20063;-79
2021/12/13 10:48:46;;;;;;;53.03;13.45;;;;;;;4.03;100.00;101869.03;4816330;29;20339;-83
2021/12/13 10:51:42;;;;;;;49.80;13.73;;;;;;;4.08;100.00;101867.69;4815580;29;20103;-83
2021/12/13 10:54:14;;;;;;;52.30;13.70;;;;;;;4.03;100.00;101853.91;4820262;29;20039;-84
2021/12/13 10:56:46;;;;;;;56.75;14.15;;;;;;;4.00;100.00;101854.16;4814446;29;20076;-82
2021/12/13 10:59:20;;;;;;;57.15;14.30;;;;;;;3.98;100.00;101840.97;4815436;29;20030;-82
2021/12/13 11:01:50;;;;;;;62.88;14.55;;;;;;;4.05;100.00;101849.28;4817302;29;20045;-84
2021/12/13 11:04:20;;;;;;;56.75;13.70;;;;;;;4.10;100.00;101841.75;4814890;29;20091;-83
2021/12/13 11:06:46;;;;;;;44.10;12.93;;;;;;;4.16;100.00;101835.03;4821138;29;20064;-83
2021/12/13 11:09:22;;;;;;;42.60;12.75;;;;;;;4.16;100.00;101841.22;4817666;29;20062;-83
2021/12/13 11:12:04;;;;;;;49.63;13.52;;;;;;;4.23;100.00;101841.53;4820115;29;20046;-84
2021/12/13 11:14:32;;;;;;;48.58;13.43;;;;;;;4.02;100.00;101795.44;4819047;29;20109;-82
2021/12/13 11:17:05;;;;;;;45.35;12.65;;;;;;;4.23;100.00;101823.72;4822772;29;20034;-83
2021/12/13 11:19:35;;;;;;;42.85;13.52;;;;;;;4.26;100.00;101829.78;4823762;29;20039;-83
2021/12/13 11:22:06;;;;;;;37.40;11.70;;;;;;;4.29;100.00;101822.34;4818648;29;20039;-82
2021/12/13 11:24:35;;;;;;;41.08;11.50;;;;;;;4.23;100.00;101806.91;4826463;29;20070;-83
2021/12/13 11:27:06;;;;;;;40.67;11.30;;;;;;;4.33;100.00;101833.59;4821629;29;20027;-83
2021/12/13 11:29:32;;;;;;;31.92;11.18;;;;;;;4.35;100.00;101843.16;4820080;29;20047;-84
2021/12/13 11:32:32;;;;;;;36.85;11.50;;;;;;;4.33;100.00;101834.44;4827081;29;20432;-84
2021/12/13 11:35:30;;;;;;;37.42;11.68;;;;;;;4.33;100.00;101838.91;4826782;29;20019;-84
2021/12/13 11:38:10;;;;;;;37.17;11.80;;;;;;;4.34;100.00;101851.25;4824493;29;20043;-85
2021/12/13 11:40:53;;;;;;;33.08;12.88;;;;;;;4.35;100.00;101847.63;4828769;29;20029;-83
2021/12/13 11:44:00;;;;;;;41.58;13.52;;;;;;;4.34;100.00;101830.81;4823608;29;20039;-82
2021/12/13 11:46:41;;;;;;;41.67;12.68;;;;;;;4.27;100.00;101820.78;4812946;29;20076;-82
2021/12/13 11:49:30;;;;;;;35.28;12.13;;;;;;;4.03;100.00;101773.16;4812221;29;20459;-81
2021/12/13 11:52:28;;;;;;;35.17;11.32;;;;;;;4.31;100.00;101814.25;4810865;29;20038;-83
2021/12/13 11:55:12;;;;;;;34.28;10.52;;;;;;;4.39;100.00;101817.91;4806042;29;20037;-82
2021/12/13 11:58:02;;;;;;;31.25;10.73;;;;;;;4.37;100.00;101808.34;4810477;29;20054;-82
2021/12/13 12:01:05;;;;;;;24.20;8.70;;;;;;;4.42;100.00;101814.13;4811681;29;20046;-82
2021/12/13 12:04:07;;;;;;;27.52;8.82;;;;;;;4.34;100.00;101797.97;4816296;29;20022;-81
2021/12/13 12:07:08;;;;;;;27.42;8.63;;;;;;;4.39;100.00;101809.91;4817271;29;20066;-82
2021/12/13 12:10:05;;;;;;;28.38;8.95;;;;;;;4.39;100.00;101801.91;4811789;29;20037;-82
2021/12/13 12:12:49;;;;;;;20.63;7.45;;;;;;;4.40;100.00;101802.75;4810791;29;20023;-82
2021/12/13 12:15:16;;;;;;;25.02;7.70;;;;;;;4.37;100.00;101803.03;4812592;29;20445;-81
2021/12/13 12:17:41;;;;;;;24.60;8.18;;;;;;;4.38;100.00;101807.41;4809945;29;20142;-81
2021/12/13 12:20:11;;;;;;;22.02;6.93;;;;;;;4.31;100.00;101792.94;4810098;29;20070;-82